• Join FlightAware (Why Join?)
  • Login
  • US Flag 
07:32PM EDT


 

Airport Tracker/Info


-or-


 

Live Flight TrackerFlight Track Log ✈ SWA325 ✈ 09-Jun-2013 ✈ KAUS - KSJC

Flight Track Log - Related Links

Times and Time Zones

All times are in EDT time to prevent confusion due to time zone crossing. See the SWA325 flight status page for this flight to view local times or setup timezone preferences in your user account.

Time Position Orientation Groundspeed Altitude Reporting Facility
EDT Latitude Longitude Course Direction KTS MPH feet Rate Location/Type
08:20PM 30.2386 -97.8758 307° West 274 315 9,900  Level Houston Center
08:21PM 30.2589 -97.9828 282° West 324 373 11,600 2,160 Climbing Houston Center
08:22PM 30.4167 -97.9449 270° West  Level FlightAware Approximate
08:22PM 30.2811 -98.0994 282° West 368 423 14,400  Level Houston Center
08:23PM 30.4263 -98.0813 278° West  Level FlightAware Approximate
08:23PM 30.3056 -98.2292 282° West 383 441 17,300  Level Houston Center
08:24PM 30.4423 -98.2172 278° West  Level FlightAware Approximate
08:24PM 30.3281 -98.3456 283° West 398 458 19,400  Level Houston Center
08:25PM 30.3539 -98.4803 283° West 417 480 21,800 2,100 Climbing Houston Center
08:26PM 30.3783 -98.6147 282° West 425 489 23,800 1,980 Climbing Houston Center
08:27PM 30.4039 -98.7561 282° West 442 509 25,900 1,980 Climbing Houston Center
08:28PM 30.4311 -98.8978 283° West 445 512 27,900 1,620 Climbing Houston Center
08:29PM 30.4572 -99.0406 282° West 448 516 29,300 1,380 Climbing Houston Center
08:30PM 30.4858 -99.1994 282° West 465 535 30,800 1,680 Climbing Houston Center
08:31PM 30.5142 -99.3461 283° West 467 537 32,800 1,680 Climbing Houston Center
08:32PM 30.5400 -99.4903 282° West 461 531 34,400 1,620 Climbing Houston Center
08:33PM 30.5708 -99.6603 282° West 453 521 36,200 1,320 Climbing Houston Center
08:34PM 30.5942 -99.8006 281° West 442 509 37,200 780 Climbing Houston Center
08:35PM 30.6156 -99.9447 280° West 455 524 37,900 300 Climbing Houston Center
08:36PM 30.6542 -100.0811 288° West 451 519 37,900  Level Houston Center
08:37PM 30.6928 -100.2175 288° West 443 510 37,900  Level Houston Center
08:38PM 30.7300 -100.3544 288° West 444 511 37,900  Level Houston Center
08:39PM 30.7758 -100.5206 288° West 454 522 37,900  Level Houston Center
08:40PM 30.8125 -100.6578 287° West 458 527 37,900  Level Houston Center
08:41PM 30.8497 -100.7869 289° West 439 505 37,900  Level Houston Center
08:42PM 30.8850 -100.9247 287° West 442 509 37,900  Level Houston Center
08:43PM 30.9225 -101.0631 288° West 448 516 37,900  Level Houston Center
08:45PM 30.9603 -101.1939 289° West 429 494 37,900  Level Houston Center
08:46PM 31.0019 -101.3531 287° West 441 507 37,900  Level Houston Center
08:47PM 31.0358 -101.4908 286° West 443 510 37,900  Level Houston Center
08:48PM 31.0711 -101.6297 287° West 446 513 37,900  Level Houston Center
08:49PM 31.1100 -101.7697 288° West 452 520 37,900  Level Houston Center
08:50PM 31.1464 -101.9106 287° West 445 512 37,900  Level Houston Center
08:51PM 31.1825 -102.0497 287° West 450 518 37,900  Level Houston Center
08:51PM 31.2067 -102.1456 286° West 458 527 37,900 60 Level Albuquerque Center
08:52PM 31.2425 -102.2886 286° West 458 527 38,000  Climbing Albuquerque Center
08:53PM 31.2783 -102.4275 287° West 455 524 38,000 -60 Level Albuquerque Center
08:54PM 31.3153 -102.5717 287° West 452 520 37,900 -60 Descending Albuquerque Center
08:55PM 31.3508 -102.7114 287° West 449 517 37,900  Level Albuquerque Center
08:56PM 31.3858 -102.8517 286° West 451 519 37,900  Level Albuquerque Center
08:57PM 31.4211 -102.9925 286° West 451 519 37,900  Level Albuquerque Center
08:58PM 31.4636 -103.1611 287° West 450 518 37,900  Level Albuquerque Center
08:59PM 31.4981 -103.3028 286° West 453 521 37,900  Level Albuquerque Center
09:00PM 31.5325 -103.4439 286° West 453 521 37,900  Level Albuquerque Center
09:01PM 31.5672 -103.5853 286° West 453 521 37,900  Level Albuquerque Center
09:02PM 31.5994 -103.7192 286° West 446 513 38,000  Climbing Albuquerque Center
09:03PM 31.6336 -103.8569 286° West 450 518 37,900 -60 Descending Albuquerque Center
09:05PM 31.6678 -103.9950 286° West 446 513 37,900  Level Albuquerque Center
09:06PM 31.7092 -104.1611 286° West 445 512 37,900  Level Albuquerque Center
09:07PM 31.7414 -104.3000 285° West 444 511 37,900  Level Albuquerque Center
09:08PM 31.7747 -104.4389 286° West 444 511 37,900  Level Albuquerque Center
09:09PM 31.8078 -104.5772 286° West 443 510 37,900  Level Albuquerque Center
09:10PM 31.8417 -104.7153 286° West 442 509 37,900  Level Albuquerque Center
09:11PM 31.8742 -104.8550 285° West 445 512 37,900  Level Albuquerque Center
09:12PM 31.9061 -104.9950 285° West 445 512 37,900  Level Albuquerque Center
09:13PM 31.9394 -105.1336 286° West 445 512 37,900  Level Albuquerque Center
09:14PM 31.9786 -105.3033 285° West 449 517 37,900  Level Albuquerque Center
09:15PM 32.0106 -105.4464 285° West 450 518 37,900  Level Albuquerque Center
09:16PM 32.0428 -105.5878 285° West 448 516 37,900  Level Albuquerque Center
09:17PM 32.0736 -105.7281 285° West 445 512 37,900  Level Albuquerque Center
09:18PM 32.1056 -105.8675 285° West 443 510 37,900  Level Albuquerque Center
09:19PM 32.1414 -106.0239 285° West 448 516 37,900  Level Albuquerque Center
09:20PM 32.1736 -106.1739 284° West 444 511 38,000  Climbing Albuquerque Center
09:21PM 32.2036 -106.3061 285° West 447 514 37,900 -60 Descending Albuquerque Center
09:22PM 32.2344 -106.4469 285° West 445 512 37,900  Level Albuquerque Center
09:23PM 32.2653 -106.5886 284° West 446 513 37,900  Level Albuquerque Center
09:24PM 32.2964 -106.7297 285° West 444 511 37,900  Level Albuquerque Center
09:25PM 32.3336 -106.9011 284° West 445 512 38,000  Climbing Albuquerque Center
09:26PM 32.3642 -107.0414 284° West 443 510 38,000  Level Albuquerque Center
09:27PM 32.3956 -107.1842 285° West 448 516 38,000 -60 Level Albuquerque Center
09:28PM 32.4214 -107.3144 283° West 454 522 37,900 -60 Descending Albuquerque Center
09:29PM 32.4508 -107.4572 284° West 452 520 37,900  Level Albuquerque Center
09:30PM 32.4847 -107.6278 283° West 449 517 37,900  Level Albuquerque Center
09:31PM 32.5147 -107.7714 284° West 449 517 37,900  Level Albuquerque Center
09:32PM 32.5447 -107.9128 284° West 449 517 38,000  Climbing Albuquerque Center
09:33PM 32.5736 -108.0539 284° West 446 513 37,900 -60 Descending Albuquerque Center
09:34PM 32.6025 -108.1953 284° West 444 511 37,900  Level Albuquerque Center
09:35PM 32.6308 -108.3347 284° West 441 507 37,900  Level Albuquerque Center
09:36PM 32.6592 -108.4742 284° West 438 504 37,900  Level Albuquerque Center
09:37PM 32.6922 -108.6397 283° West 434 499 37,900  Level Albuquerque Center
09:38PM 32.7197 -108.7764 283° West 436 502 37,900  Level Albuquerque Center
09:39PM 32.7528 -108.9244 285° West 439 505 37,900  Level Albuquerque Center
09:40PM 32.7806 -109.0647 283° West 437 503 37,900  Level Albuquerque Center
09:41PM 32.8031 -109.2072 281° West 442 509 37,900  Level Albuquerque Center
09:42PM 32.8319 -109.3483 284° West 441 507 37,900  Level Albuquerque Center
09:43PM 32.8592 -109.4903 283° West 442 509 37,900  Level Albuquerque Center
09:44PM 32.8864 -109.6311 283° West 443 510 37,900  Level Albuquerque Center
09:45PM 32.9136 -109.7722 283° West 442 509 37,900  Level Albuquerque Center
09:46PM 32.9403 -109.9150 283° West 445 512 37,900  Level Albuquerque Center
09:47PM 32.9739 -110.0858 283° West 445 512 37,900  Level Albuquerque Center
09:48PM 33.0014 -110.2283 283° West 446 513 38,000  Climbing Albuquerque Center
09:50PM 33.0278 -110.3700 283° West 443 510 38,000 -60 Level Albuquerque Center
09:51PM 33.0531 -110.5122 282° West 442 509 37,900 -60 Descending Albuquerque Center
09:52PM 33.0792 -110.6531 283° West 441 507 37,900  Level Albuquerque Center
09:53PM 33.1058 -110.7978 282° West 442 509 38,000  Climbing Albuquerque Center
09:54PM 33.1314 -110.9408 282° West 441 507 37,900 -60 Descending Albuquerque Center
09:55PM 33.1583 -111.0814 283° West 436 502 37,900  Level Albuquerque Center
09:56PM 33.1822 -111.2250 281° West 440 506 37,900  Level Albuquerque Center
09:57PM 33.2133 -111.3969 282° West 441 507 37,900  Level Albuquerque Center
09:58PM 33.2375 -111.5403 281° West 440 506 37,900  Level Albuquerque Center
09:59PM 33.2631 -111.6839 282° West 441 507 37,900  Level Albuquerque Center
10:00PM 33.2875 -111.8281 282° West 441 507 37,900  Level Albuquerque Center
10:01PM 33.3119 -111.9711 282° West 439 505 37,900  Level Albuquerque Center
10:02PM 33.3358 -112.1150 281° West 439 505 38,000  Climbing Albuquerque Center
10:03PM 33.3600 -112.2594 281° West 442 509 38,000  Level Albuquerque Center
10:04PM 33.3839 -112.4058 281° West 444 511 38,000 -60 Level Albuquerque Center
10:05PM 33.4086 -112.5511 282° West 445 512 37,900 -60 Descending Albuquerque Center
10:06PM 33.4356 -112.7153 281° West 442 509 37,900  Level Albuquerque Center
10:07PM 33.4586 -112.8592 281° West 442 509 37,900  Level Albuquerque Center
10:08PM 33.4869 -113.0003 284° West 440 506 37,900  Level Albuquerque Center
10:09PM 33.5156 -113.1414 284° West 439 505 37,900  Level Albuquerque Center
10:10PM 33.5403 -113.2822 282° West 436 502 37,900  Level Albuquerque Center
10:11PM 33.5678 -113.4222 283° West 434 499 37,900  Level Albuquerque Center
10:12PM 33.5947 -113.5617 283° West 433 498 37,900  Level Albuquerque Center
10:13PM 33.6219 -113.7150 282° West 430 495 37,900  Level Albuquerque Center
10:14PM 33.6475 -113.8544 282° West 429 494 37,900  Level Albuquerque Center
10:15PM 33.6733 -113.9942 283° West 430 495 37,900  Level Albuquerque Center
10:16PM 33.6997 -114.1350 283° West 431 496 38,000  Climbing Albuquerque Center
10:17PM 33.7269 -114.2883 282° West 432 497 37,900 -60 Descending Albuquerque Center
10:18PM 33.7528 -114.4281 283° West 430 495 37,900  Level Albuquerque Center
10:18PM 33.7619 -114.4725 284° West 432 497 37,900  Level Los Angeles Center
10:19PM 33.7808 -114.6428 278° West 431 496 37,900  Level Los Angeles Center
10:21PM 33.7883 -114.7850 274° West 429 494 37,900  Level Los Angeles Center
10:22PM 33.7983 -114.9272 275° West 429 494 37,900  Level Los Angeles Center
10:23PM 33.8483 -115.0622 294° West 442 509 37,900  Level Los Angeles Center
10:24PM 33.8989 -115.1961 294° West 442 509 37,900  Level Los Angeles Center
10:25PM 33.9500 -115.3278 295° West 439 505 37,900  Level Los Angeles Center
10:26PM 34.0019 -115.4606 295° West 439 505 37,900  Level Los Angeles Center
10:27PM 34.0631 -115.6211 295° West 442 509 37,900  Level Los Angeles Center
10:28PM 34.1150 -115.7550 295° West 442 509 37,900  Level Los Angeles Center
10:29PM 34.1669 -115.8928 295° West 443 510 38,000  Climbing Los Angeles Center
10:30PM 34.2206 -116.0311 295° West 453 521 37,900 -60 Descending Los Angeles Center
10:31PM 34.2728 -116.1683 295° West 450 518 37,900  Level Los Angeles Center
10:32PM 34.3242 -116.3042 295° West 447 514 37,900  Level Los Angeles Center
10:33PM 34.3742 -116.4381 294° West 438 504 37,900  Level Los Angeles Center
10:34PM 34.4258 -116.5717 295° West 438 504 38,000  Climbing Los Angeles Center
10:35PM 34.4669 -116.6831 294° West 447 514 37,900 -60 Descending Los Angeles Center
10:36PM 34.5408 -116.8789 295° West 457 526 37,900  Level Los Angeles Center
10:37PM 34.5933 -117.0214 294° West 462 532 37,900  Level Los Angeles Center
10:38PM 34.6464 -117.1647 294° West 465 535 37,900  Level Los Angeles Center
10:39PM 34.6992 -117.3086 294° West 465 535 37,900  Level Los Angeles Center
10:40PM 34.7517 -117.4544 294° West 468 539 38,000  Climbing Los Angeles Center
10:41PM 34.8042 -117.6008 294° West 468 539 37,900  Descending Los Angeles Center
10:42PM 34.8467 -117.7181 294° West 467 537 38,000  Climbing Los Angeles Center
10:43PM 34.9117 -117.8936 294° West 468 539 37,900 -60 Descending Los Angeles Center
10:44PM 34.9733 -118.0672 293° West 465 535 37,900  Level Los Angeles Center
10:45PM 35.0247 -118.2089 294° West 462 532 37,900  Level Los Angeles Center
10:46PM 35.0750 -118.3500 294° West 457 526 37,900  Level Los Angeles Center
10:47PM 35.1300 -118.5039 294° West 461 531 37,900  Level Los Angeles Center
10:48PM 35.1806 -118.6467 293° West 459 528 37,900  Level Los Angeles Center
10:50PM 35.2328 -118.7908 294° West 461 531 37,900  Level Los Angeles Center
10:51PM 35.2878 -118.9631 291° West 454 522 37,900  Level Los Angeles Center
10:52PM 35.3033 -119.1153 277° West 449 517 37,900  Level Los Angeles Center
10:53PM 35.3217 -119.2636 279° West 443 510 37,900  Level Los Angeles Center
10:54PM 35.3456 -119.4142 281° West 449 517 37,900  Level Los Angeles Center
10:55PM 35.4136 -119.5828 296° West 461 531 37,900  Level Los Angeles Center
10:56PM 35.4675 -119.7211 296° West 463 533 37,900  Level Oakland Center
10:57PM 35.5364 -119.8897 297° West 456 525 37,900  Level Los Angeles Center
10:58PM 35.5933 -120.0314 296° West 465 535 37,900  Level Los Angeles Center
10:59PM 35.6503 -120.1717 297° West 467 537 37,900  Level Oakland Center
11:00PM 35.7072 -120.3147 296° West 473 544 37,900  Level Oakland Center
11:01PM 35.7642 -120.4578 296° West 471 542 37,900  Level Oakland Center
11:02PM 35.8489 -120.5822 310° West 478 550 37,900 -1,200 Level Oakland Center
11:03PM 35.9369 -120.7011 312° West 471 542 35,500 -2,760 Descending Oakland Center
11:04PM 36.0272 -120.8242 312° West 481 554 32,300 -2,940 Descending Oakland Center
11:05PM 36.1172 -120.9492 312° West 487 560 29,600 -2,820 Descending Oakland Center
11:06PM 36.2231 -121.0942 312° West 473 544 26,600 -2,700 Descending Oakland Center
11:07PM 36.3081 -121.2122 312° West 461 531 24,200 -2,280 Descending Oakland Center
11:08PM 36.3928 -121.3228 314° West 444 511 22,000 -3,180 Descending Oakland Center
11:09PM 36.4958 -121.4044 328° Northwest 440 506 17,800 -3,600 Descending Oakland Center
11:10PM 36.5942 -121.4836 327° Northwest 419 482 14,800 -2,760 Descending Oakland Center
11:11PM 36.6894 -121.5622 327° Northwest 411 473 12,300 -1,740 Descending Oakland Center
11:12PM 36.7775 -121.6347 327° Northwest 376 433 11,300 -1,200 Descending Oakland Center
11:13PM 36.8167 -121.6667 327° Northwest 363 418 10,600 -960 Descending Northern Cal TRACON
11:13PM 36.9000 -121.7333 327° Northwest 329 379 10,100 -780 Descending Northern Cal TRACON
11:14PM 36.9331 -121.7628 325° Northwest 319 367 9,400 -1,380 Descending Oakland Center
11:15PM 37.0228 -121.8144 335° Northwest 298 343 7,800 -1,380 Descending Oakland Center
11:16PM 37.0947 -121.8544 336° Northwest 286 329 6,600 -1,080 Descending Oakland Center
11:17PM 37.1639 -121.8956 335° Northwest 277 319 5,700 -780 Descending Oakland Center
11:18PM 37.2325 -121.9392 333° Northwest 276 318 5,100 -540 Descending Oakland Center
11:19PM 37.3008 -121.9806 334° Northwest 274 315 4,700 -600 Descending Oakland Center
11:20PM 37.3603 -122.0250 329° Northwest 257 296 3,900 -1,080 Descending Oakland Center
11:21PM 37.4103 -122.0553 334° Northwest 211 243 2,600 -1,200 Descending Oakland Center
11:22PM 37.4333 -122.0333 37° Northeast 197 227 2,400 -900 Descending Northern Cal TRACON
11:22PM 37.4167 -122.0000 122° Southeast 173 199 1,600 -960 Descending Northern Cal TRACON
11:24PM 37.3833 -121.9500 130° Southeast 136 157 500 -840 Descending Northern Cal TRACON
11:24PM 37.3692 -121.9358 142° Southeast 143 165 100 -540 Descending Oakland Center